sensor_id;sensor_type;location;lat;lon;timestamp;pressure;altitude;pressure_sealevel;temperature;humidity
51123;BME280;37162;41.724;13.346;2022-10-29T00:00:35;97652.16;;;20.52;60.44
51123;BME280;37162;41.724;13.346;2022-10-29T00:03:01;97649.44;;;20.52;60.50
51123;BME280;37162;41.724;13.346;2022-10-29T00:05:26;97648.63;;;20.52;60.37
51123;BME280;37162;41.724;13.346;2022-10-29T00:07:51;97654.03;;;20.52;60.27
51123;BME280;37162;41.724;13.346;2022-10-29T00:10:17;97655.06;;;20.51;60.21
51123;BME280;37162;41.724;13.346;2022-10-29T00:12:42;97646.63;;;20.47;60.09
51123;BME280;37162;41.724;13.346;2022-10-29T00:15:08;97649.66;;;20.51;59.94
51123;BME280;37162;41.724;13.346;2022-10-29T00:17:34;97646.97;;;20.51;60.03
51123;BME280;37162;41.724;13.346;2022-10-29T00:19:59;97642.63;;;20.50;59.96
51123;BME280;37162;41.724;13.346;2022-10-29T00:22:24;97650.72;;;20.50;59.83
51123;BME280;37162;41.724;13.346;2022-10-29T00:24:50;97651.53;;;20.50;59.85
51123;BME280;37162;41.724;13.346;2022-10-29T00:27:15;97648.03;;;20.50;59.79
51123;BME280;37162;41.724;13.346;2022-10-29T00:29:41;97647.19;;;20.49;59.91
51123;BME280;37162;41.724;13.346;2022-10-29T00:32:06;97643.69;;;20.49;59.89
51123;BME280;37162;41.724;13.346;2022-10-29T00:34:34;97647.44;;;20.48;59.88
51123;BME280;37162;41.724;13.346;2022-10-29T00:37:01;97648.47;;;20.47;59.94
51123;BME280;37162;41.724;13.346;2022-10-29T00:39:26;97643.69;;;20.49;60.03
51123;BME280;37162;41.724;13.346;2022-10-29T00:41:54;97646.38;;;20.49;60.02
51123;BME280;37162;41.724;13.346;2022-10-29T00:44:35;97650.97;;;20.48;60.02
51123;BME280;37162;41.724;13.346;2022-10-29T00:47:25;97645.56;;;20.48;60.07
51123;BME280;37162;41.724;13.346;2022-10-29T00:49:59;97646.63;;;20.47;60.00
51123;BME280;37162;41.724;13.346;2022-10-29T00:52:28;97636.25;;;20.44;60.17
51123;BME280;37162;41.724;13.346;2022-10-29T00:54:59;97648.47;;;20.47;59.92
51123;BME280;37162;41.724;13.346;2022-10-29T00:57:32;97647.63;;;20.46;59.88
51123;BME280;37162;41.724;13.346;2022-10-29T01:00:00;97638.72;;;20.46;59.69
51123;BME280;37162;41.724;13.346;2022-10-29T01:02:26;97634.97;;;20.47;59.69
51123;BME280;37162;41.724;13.346;2022-10-29T01:04:51;97635.19;;;20.45;59.55
51123;BME280;37162;41.724;13.346;2022-10-29T01:07:19;97634.13;;;20.46;59.37
51123;BME280;37162;41.724;13.346;2022-10-29T01:09:45;97634.38;;;20.45;59.51
51123;BME280;37162;41.724;13.346;2022-10-29T01:14:55;97622.75;;;20.44;59.57
51123;BME280;37162;41.724;13.346;2022-10-29T01:22:54;97618.41;;;20.43;59.69
51123;BME280;37162;41.724;13.346;2022-10-29T01:25:48;97618.63;;;20.41;59.84
51123;BME280;37162;41.724;13.346;2022-10-29T01:33:39;97613.47;;;20.40;59.75
51123;BME280;37162;41.724;13.346;2022-10-29T01:36:40;97609.16;;;20.39;59.58
51123;BME280;37162;41.724;13.346;2022-10-29T01:44:34;97606.69;;;20.37;59.55
51123;BME280;37162;41.724;13.346;2022-10-29T01:47:03;97606.69;;;20.37;59.51
51123;BME280;37162;41.724;13.346;2022-10-29T01:49:41;97593.41;;;20.36;59.51
51123;BME280;37162;41.724;13.346;2022-10-29T01:52:10;97598.81;;;20.36;59.54
51123;BME280;37162;41.724;13.346;2022-10-29T01:54:41;97600.69;;;20.35;59.42
51123;BME280;37162;41.724;13.346;2022-10-29T01:57:30;97597.16;;;20.35;59.33
51123;BME280;37162;41.724;13.346;2022-10-29T01:59:59;97587.91;;;20.31;59.20
51123;BME280;37162;41.724;13.346;2022-10-29T02:03:02;97589.06;;;20.35;59.47
51123;BME280;37162;41.724;13.346;2022-10-29T02:05:34;97590.94;;;20.34;59.42
51123;BME280;37162;41.724;13.346;2022-10-29T02:08:19;97584.75;;;20.34;59.58
51123;BME280;37162;41.724;13.346;2022-10-29T02:11:14;97582.03;;;20.34;59.51
51123;BME280;37162;41.724;13.346;2022-10-29T02:14:09;97573.13;;;20.33;59.65
51123;BME280;37162;41.724;13.346;2022-10-29T02:16:36;97570.31;;;20.28;59.52
51123;BME280;37162;41.724;13.346;2022-10-29T02:19:02;97575.00;;;20.33;59.33
51123;BME280;37162;41.724;13.346;2022-10-29T02:21:29;97572.31;;;20.33;59.37
51123;BME280;37162;41.724;13.346;2022-10-29T02:23:54;97563.25;;;20.27;59.15
51123;BME280;37162;41.724;13.346;2022-10-29T02:26:19;97567.47;;;20.35;58.97
51123;BME280;37162;41.724;13.346;2022-10-29T02:28:46;97566.66;;;20.34;58.90
51123;BME280;37162;41.724;13.346;2022-10-29T02:31:11;97562.34;;;20.33;58.96
51123;BME280;37162;41.724;13.346;2022-10-29T02:33:36;97565.84;;;20.34;59.04
51123;BME280;37162;41.724;13.346;2022-10-29T02:36:02;97562.09;;;20.35;59.01
51123;BME280;37162;41.724;13.346;2022-10-29T02:38:28;97547.06;;;20.27;58.84
51123;BME280;37162;41.724;13.346;2022-10-29T02:40:53;97556.94;;;20.33;59.01
51123;BME280;37162;41.724;13.346;2022-10-29T02:43:18;97562.34;;;20.33;58.80
51123;BME280;37162;41.724;13.346;2022-10-29T02:45:44;97561.28;;;20.34;59.25
51123;BME280;37162;41.724;13.346;2022-10-29T02:48:09;97549.75;;;20.27;59.06
51123;BME280;37162;41.724;13.346;2022-10-29T02:50:34;97562.34;;;20.33;59.21
51123;BME280;37162;41.724;13.346;2022-10-29T02:53:00;97559.63;;;20.33;59.02
51123;BME280;37162;41.724;13.346;2022-10-29T02:55:25;97551.06;;;20.25;59.16
51123;BME280;37162;41.724;13.346;2022-10-29T02:57:51;97565.03;;;20.33;58.92
51123;BME280;37162;41.724;13.346;2022-10-29T03:00:16;97566.91;;;20.33;58.94
51123;BME280;37162;41.724;13.346;2022-10-29T03:02:42;97560.66;;;20.32;58.67
51123;BME280;37162;41.724;13.346;2022-10-29T03:05:08;97555.50;;;20.31;58.68
51123;BME280;37162;41.724;13.346;2022-10-29T03:07:37;97557.97;;;20.32;58.66
51123;BME280;37162;41.724;13.346;2022-10-29T03:10:06;97558.22;;;20.31;58.42
51123;BME280;37162;41.724;13.346;2022-10-29T03:12:32;97553.63;;;20.31;58.50
51123;BME280;37162;41.724;13.346;2022-10-29T03:14:57;97552.81;;;20.31;58.57
51123;BME280;37162;41.724;13.346;2022-10-29T03:17:23;97559.03;;;20.31;58.59
51123;BME280;37162;41.724;13.346;2022-10-29T03:19:48;97552.00;;;20.30;58.45
51123;BME280;37162;41.724;13.346;2022-10-29T03:22:13;97556.56;;;20.30;58.40
51123;BME280;37162;41.724;13.346;2022-10-29T03:24:39;97559.28;;;20.30;58.38
51123;BME280;37162;41.724;13.346;2022-10-29T03:27:04;97561.97;;;20.30;58.34
51123;BME280;37162;41.724;13.346;2022-10-29T03:29:30;97558.47;;;20.29;58.35
51123;BME280;37162;41.724;13.346;2022-10-29T03:31:55;97556.56;;;20.30;58.39
51123;BME280;37162;41.724;13.346;2022-10-29T03:34:20;97555.75;;;20.29;58.44
51123;BME280;37162;41.724;13.346;2022-10-29T03:36:46;97563.03;;;20.29;58.45
51123;BME280;37162;41.724;13.346;2022-10-29T03:39:12;97563.03;;;20.29;58.45
51123;BME280;37162;41.724;13.346;2022-10-29T03:41:37;97568.44;;;20.29;58.37
51123;BME280;37162;41.724;13.346;2022-10-29T03:44:02;97568.44;;;20.29;58.51
51123;BME280;37162;41.724;13.346;2022-10-29T03:46:28;97563.50;;;20.26;58.36
51123;BME280;37162;41.724;13.346;2022-10-29T03:48:53;97557.84;;;20.27;58.35
51123;BME280;37162;41.724;13.346;2022-10-29T03:51:19;97572.16;;;20.28;58.15
51123;BME280;37162;41.724;13.346;2022-10-29T03:53:44;97571.34;;;20.27;58.27
51123;BME280;37162;41.724;13.346;2022-10-29T03:56:10;97574.84;;;20.28;58.30
51123;BME280;37162;41.724;13.346;2022-10-29T03:58:35;97569.94;;;20.25;58.15
51123;BME280;37162;41.724;13.346;2022-10-29T04:01:03;97574.84;;;20.28;58.16
51123;BME280;37162;41.724;13.346;2022-10-29T04:03:31;97582.97;;;20.28;57.97
51123;BME280;37162;41.724;13.346;2022-10-29T04:05:58;97574.75;;;20.23;58.17
51123;BME280;37162;41.724;13.346;2022-10-29T04:08:24;97572.41;;;20.26;58.14
51123;BME280;37162;41.724;13.346;2022-10-29T04:10:50;97569.72;;;20.26;57.95
51123;BME280;37162;41.724;13.346;2022-10-29T04:13:17;97575.09;;;20.26;57.98
51123;BME280;37162;41.724;13.346;2022-10-29T04:15:42;97573.22;;;20.27;57.98
51123;BME280;37162;41.724;13.346;2022-10-29T04:18:09;97567.81;;;20.27;58.22
51123;BME280;37162;41.724;13.346;2022-10-29T04:20:36;97572.41;;;20.26;58.27
51123;BME280;37162;41.724;13.346;2022-10-29T04:23:01;97567.25;;;20.25;58.28
51123;BME280;37162;41.724;13.346;2022-10-29T04:25:27;97582.38;;;20.26;58.37
51123;BME280;37162;41.724;13.346;2022-10-29T04:27:53;97575.09;;;20.26;58.14
51123;BME280;37162;41.724;13.346;2022-10-29T04:30:20;97574.53;;;20.24;58.06
51123;BME280;37162;41.724;13.346;2022-10-29T04:32:45;97579.94;;;20.24;57.86
51123;BME280;37162;41.724;13.346;2022-10-29T04:35:11;97578.03;;;20.25;57.78
51123;BME280;37162;41.724;13.346;2022-10-29T04:37:36;97570.19;;;20.23;57.68
51123;BME280;37162;41.724;13.346;2022-10-29T04:40:02;97579.09;;;20.24;57.59
51123;BME280;37162;41.724;13.346;2022-10-29T04:42:27;97566.91;;;20.21;57.52
51123;BME280;37162;41.724;13.346;2022-10-29T04:44:53;97572.03;;;20.23;57.55
51123;BME280;37162;41.724;13.346;2022-10-29T04:47:18;97563.84;;;20.17;57.64
51123;BME280;37162;41.724;13.346;2022-10-29T04:49:43;97581.00;;;20.23;57.79
51123;BME280;37162;41.724;13.346;2022-10-29T04:52:09;97578.50;;;20.22;57.96
51123;BME280;37162;41.724;13.346;2022-10-29T04:54:34;97569.72;;;20.14;57.99
51123;BME280;37162;41.724;13.346;2022-10-29T04:57:00;97582.50;;;20.19;57.90
51123;BME280;37162;41.724;13.346;2022-10-29T04:59:25;97576.50;;;20.17;57.53
51123;BME280;37162;41.724;13.346;2022-10-29T05:01:50;97573.81;;;20.17;57.79
51123;BME280;37162;41.724;13.346;2022-10-29T05:04:16;97582.72;;;20.17;57.73
51123;BME280;37162;41.724;13.346;2022-10-29T05:06:41;97577.81;;;20.14;57.78
51123;BME280;37162;41.724;13.346;2022-10-29T05:09:06;97582.16;;;20.15;58.03
51123;BME280;37162;41.724;13.346;2022-10-29T05:11:32;97575.31;;;20.13;57.67
51123;BME280;37162;41.724;13.346;2022-10-29T05:13:57;97576.13;;;20.13;57.81
51123;BME280;37162;41.724;13.346;2022-10-29T05:16:23;97584.47;;;20.12;57.86
51123;BME280;37162;41.724;13.346;2022-10-29T05:18:48;97579.31;;;20.10;57.64
51123;BME280;37162;41.724;13.346;2022-10-29T05:21:14;97587.41;;;20.10;57.79
51123;BME280;37162;41.724;13.346;2022-10-29T05:23:39;97584.94;;;20.09;57.79
51123;BME280;37162;41.724;13.346;2022-10-29T05:26:05;97584.94;;;20.09;57.65
51123;BME280;37162;41.724;13.346;2022-10-29T05:28:30;97580.84;;;20.06;57.45
51123;BME280;37162;41.724;13.346;2022-10-29T05:30:59;97582.72;;;20.06;57.14
51123;BME280;37162;41.724;13.346;2022-10-29T05:33:25;97574.88;;;20.04;57.16
51123;BME280;37162;41.724;13.346;2022-10-29T05:35:50;97574.88;;;20.04;57.24
51123;BME280;37162;41.724;13.346;2022-10-29T05:38:16;97574.03;;;20.04;57.22
51123;BME280;37162;41.724;13.346;2022-10-29T05:40:42;97584.59;;;20.05;57.29
51123;BME280;37162;41.724;13.346;2022-10-29T05:43:12;97586.47;;;20.05;57.05
51123;BME280;37162;41.724;13.346;2022-10-29T05:45:38;97582.13;;;20.04;57.05
51123;BME280;37162;41.724;13.346;2022-10-29T05:48:04;97583.78;;;20.05;57.08
51123;BME280;37162;41.724;13.346;2022-10-29T05:50:31;97574.88;;;20.04;57.30
51123;BME280;37162;41.724;13.346;2022-10-29T05:53:01;97587.31;;;20.05;57.24
51123;BME280;37162;41.724;13.346;2022-10-29T05:55:28;97591.06;;;20.04;57.32
51123;BME280;37162;41.724;13.346;2022-10-29T05:57:58;97597.03;;;20.06;57.30
51123;BME280;37162;41.724;13.346;2022-10-29T06:00:26;97589.19;;;20.05;57.23
51123;BME280;37162;41.724;13.346;2022-10-29T06:02:52;97591.88;;;20.05;56.88
51123;BME280;37162;41.724;13.346;2022-10-29T06:05:17;97590.22;;;20.04;56.80
51123;BME280;37162;41.724;13.346;2022-10-29T06:07:43;97588.56;;;20.03;56.80
51123;BME280;37162;41.724;13.346;2022-10-29T06:10:08;97598.91;;;20.06;56.89
51123;BME280;37162;41.724;13.346;2022-10-29T06:12:34;97583.88;;;19.98;56.97
51123;BME280;37162;41.724;13.346;2022-10-29T06:14:59;97591.06;;;20.04;57.02
51123;BME280;37162;41.724;13.346;2022-10-29T06:17:25;97591.63;;;20.06;56.89
51123;BME280;37162;41.724;13.346;2022-10-29T06:19:51;97599.47;;;20.08;56.77
51123;BME280;37162;41.724;13.346;2022-10-29T06:22:16;97601.13;;;20.09;57.12
51123;BME280;37162;41.724;13.346;2022-10-29T06:24:42;97593.03;;;20.09;56.80
51123;BME280;37162;41.724;13.346;2022-10-29T06:27:07;97593.97;;;20.03;56.65
51123;BME280;37162;41.724;13.346;2022-10-29T06:29:32;97606.31;;;20.10;56.49
51123;BME280;37162;41.724;13.346;2022-10-29T06:31:58;97607.94;;;20.11;56.62
51123;BME280;37162;41.724;13.346;2022-10-29T06:34:23;97609.38;;;20.14;56.96
51123;BME280;37162;41.724;13.346;2022-10-29T06:36:48;97614.53;;;20.15;57.02
51123;BME280;37162;41.724;13.346;2022-10-29T06:39:14;97616.41;;;20.15;56.85
51123;BME280;37162;41.724;13.346;2022-10-29T06:41:39;97615.09;;;20.17;56.77
51123;BME280;37162;41.724;13.346;2022-10-29T06:44:05;97620.28;;;20.19;56.67
51123;BME280;37162;41.724;13.346;2022-10-29T06:46:30;97609.94;;;20.16;56.47
51123;BME280;37162;41.724;13.346;2022-10-29T06:48:58;97620.84;;;20.21;54.39
51123;BME280;37162;41.724;13.346;2022-10-29T06:51:24;97620.03;;;20.21;51.42
51123;BME280;37162;41.724;13.346;2022-10-29T06:53:49;97619.34;;;20.25;50.48
51123;BME280;37162;41.724;13.346;2022-10-29T06:56:14;97625.69;;;20.31;51.12
51123;BME280;37162;41.724;13.346;2022-10-29T06:58:40;97623.69;;;20.38;53.05
51123;BME280;37162;41.724;13.346;2022-10-29T07:01:05;97626.41;;;20.38;51.45
51123;BME280;37162;41.724;13.346;2022-10-29T07:03:30;97610.31;;;20.31;49.88
51123;BME280;37162;41.724;13.346;2022-10-29T07:05:57;97625.03;;;20.47;50.99
51123;BME280;37162;41.724;13.346;2022-10-29T07:08:23;97627.25;;;20.50;50.70
51123;BME280;37162;41.724;13.346;2022-10-29T07:10:50;97626.31;;;20.56;51.77
51123;BME280;37162;41.724;13.346;2022-10-29T07:13:16;97632.88;;;20.60;52.53
51123;BME280;37162;41.724;13.346;2022-10-29T07:15:41;97624.44;;;20.57;50.37
51123;BME280;37162;41.724;13.346;2022-10-29T07:18:07;97635.94;;;20.64;50.38
51123;BME280;37162;41.724;13.346;2022-10-29T07:20:36;97645.78;;;20.70;51.39
51123;BME280;37162;41.724;13.346;2022-10-29T07:23:02;97633.22;;;20.64;50.34
51123;BME280;37162;41.724;13.346;2022-10-29T07:25:28;97642.16;;;20.76;51.27
51123;BME280;37162;41.724;13.346;2022-10-29T07:27:54;97644.72;;;20.83;52.68
51123;BME280;37162;41.724;13.346;2022-10-29T07:30:20;97646.16;;;20.85;52.57
51123;BME280;37162;41.724;13.346;2022-10-29T07:32:46;97648.16;;;20.90;53.32
51123;BME280;37162;41.724;13.346;2022-10-29T07:35:11;97649.53;;;20.92;53.20
51123;BME280;37162;41.724;13.346;2022-10-29T07:37:37;97647.06;;;20.91;51.20
51123;BME280;37162;41.724;13.346;2022-10-29T07:40:03;97643.41;;;20.97;53.05
51123;BME280;37162;41.724;13.346;2022-10-29T07:42:29;97647.91;;;21.03;53.87
51123;BME280;37162;41.724;13.346;2022-10-29T07:44:54;97646.59;;;21.06;54.37
51123;BME280;37162;41.724;13.346;2022-10-29T07:47:20;97641.78;;;21.08;54.28
51123;BME280;37162;41.724;13.346;2022-10-29T07:49:45;97653.50;;;21.13;54.18
51123;BME280;37162;41.724;13.346;2022-10-29T07:52:10;97647.84;;;21.15;53.76
51123;BME280;37162;41.724;13.346;2022-10-29T07:54:36;97655.25;;;21.19;54.21
51123;BME280;37162;41.724;13.346;2022-10-29T07:57:01;97656.44;;;21.24;54.11
51123;BME280;37162;41.724;13.346;2022-10-29T07:59:27;97647.00;;;21.26;54.17
51123;BME280;37162;41.724;13.346;2022-10-29T08:01:52;97653.00;;;21.28;53.03
51123;BME280;37162;41.724;13.346;2022-10-29T08:04:18;97660.44;;;21.33;54.07
51123;BME280;37162;41.724;13.346;2022-10-29T08:06:43;97655.38;;;21.36;54.04
51123;BME280;37162;41.724;13.346;2022-10-29T08:09:10;97648.81;;;21.32;54.30
51123;BME280;37162;41.724;13.346;2022-10-29T08:11:36;97666.03;;;21.43;53.64
51123;BME280;37162;41.724;13.346;2022-10-29T08:14:02;97661.44;;;21.43;53.31
51123;BME280;37162;41.724;13.346;2022-10-29T08:16:27;97659.66;;;21.49;54.07
51123;BME280;37162;41.724;13.346;2022-10-29T08:18:53;97668.13;;;21.53;54.23
51123;BME280;37162;41.724;13.346;2022-10-29T08:21:18;97661.44;;;21.55;54.21
51123;BME280;37162;41.724;13.346;2022-10-29T08:23:44;97663.88;;;21.57;54.23
51123;BME280;37162;41.724;13.346;2022-10-29T08:26:10;97648.63;;;21.51;54.03
51123;BME280;37162;41.724;13.346;2022-10-29T08:28:35;97664.22;;;21.60;54.31
51123;BME280;37162;41.724;13.346;2022-10-29T08:31:01;97659.88;;;21.59;53.40
51123;BME280;37162;41.724;13.346;2022-10-29T08:33:26;97661.84;;;21.64;53.93
51123;BME280;37162;41.724;13.346;2022-10-29T08:35:52;97646.34;;;21.59;53.97
51123;BME280;37162;41.724;13.346;2022-10-29T08:38:19;97659.00;;;21.71;53.88
51123;BME280;37162;41.724;13.346;2022-10-29T08:41:15;97655.59;;;21.75;53.77
51123;BME280;37162;41.724;13.346;2022-10-29T08:44:16;97661.56;;;21.77;53.58
51123;BME280;37162;41.724;13.346;2022-10-29T08:47:02;97659.19;;;21.81;53.83
51123;BME280;37162;41.724;13.346;2022-10-29T08:50:00;97666.25;;;21.82;53.62
51123;BME280;37162;41.724;13.346;2022-10-29T08:52:30;97656.84;;;21.84;53.36
51123;BME280;37162;41.724;13.346;2022-10-29T08:57:33;97652.34;;;21.90;53.60
51123;BME280;37162;41.724;13.346;2022-10-29T09:00:05;97654.78;;;21.91;53.96
51123;BME280;37162;41.724;13.346;2022-10-29T09:02:31;97649.16;;;21.93;53.89
51123;BME280;37162;41.724;13.346;2022-10-29T09:04:57;97642.34;;;21.90;53.70
51123;BME280;37162;41.724;13.346;2022-10-29T09:10:11;97646.84;;;22.02;53.20
51123;BME280;37162;41.724;13.346;2022-10-29T09:12:52;97649.34;;;22.03;53.46
51123;BME280;37162;41.724;13.346;2022-10-29T09:21:04;97642.50;;;22.12;53.36
51123;BME280;37162;41.724;13.346;2022-10-29T09:26:04;97633.38;;;22.18;53.33
51123;BME280;37162;41.724;13.346;2022-10-29T09:29:12;97634.78;;;22.21;53.27
51123;BME280;37162;41.724;13.346;2022-10-29T09:31:46;97634.28;;;22.24;53.26
51123;BME280;37162;41.724;13.346;2022-10-29T09:34:24;97629.47;;;22.26;53.33
51123;BME280;37162;41.724;13.346;2022-10-29T09:36:53;97634.34;;;22.29;53.22
51123;BME280;37162;41.724;13.346;2022-10-29T09:39:27;97637.06;;;22.29;53.27
51123;BME280;37162;41.724;13.346;2022-10-29T09:41:56;97628.13;;;22.29;53.06
51123;BME280;37162;41.724;13.346;2022-10-29T09:44:57;97627.31;;;22.28;53.53
51123;BME280;37162;41.724;13.346;2022-10-29T09:47:58;97628.72;;;22.31;53.24
51123;BME280;37162;41.724;13.346;2022-10-29T09:50:34;97627.97;;;22.35;53.23
51123;BME280;37162;41.724;13.346;2022-10-29T09:53:03;97627.72;;;22.37;53.55
51123;BME280;37162;41.724;13.346;2022-10-29T09:55:38;97631.25;;;22.37;53.34
51123;BME280;37162;41.724;13.346;2022-10-29T09:58:05;97628.88;;;22.41;53.39
51123;BME280;37162;41.724;13.346;2022-10-29T10:00:31;97617.78;;;22.42;53.38
51123;BME280;37162;41.724;13.346;2022-10-29T10:03:06;97621.09;;;22.44;52.81
51123;BME280;37162;41.724;13.346;2022-10-29T10:05:35;97617.03;;;22.47;53.01
51123;BME280;37162;41.724;13.346;2022-10-29T10:08:19;97614.06;;;22.49;53.23
51123;BME280;37162;41.724;13.346;2022-10-29T10:10:56;97611.97;;;22.51;52.09
51123;BME280;37162;41.724;13.346;2022-10-29T10:13:50;97621.94;;;22.67;53.00
51123;BME280;37162;41.724;13.346;2022-10-29T10:16:23;97612.03;;;22.73;53.14
51123;BME280;37162;41.724;13.346;2022-10-29T10:18:48;97611.25;;;22.77;51.93
51123;BME280;37162;41.724;13.346;2022-10-29T10:21:31;97615.84;;;22.77;52.81
51123;BME280;37162;41.724;13.346;2022-10-29T10:24:02;97610.00;;;22.85;52.51
51123;BME280;37162;41.724;13.346;2022-10-29T10:26:42;97608.47;;;22.89;50.61
51123;BME280;37162;41.724;13.346;2022-10-29T10:29:19;97599.66;;;22.99;51.65
51123;BME280;37162;41.724;13.346;2022-10-29T10:37:02;97596.63;;;23.17;51.90
51123;BME280;37162;41.724;13.346;2022-10-29T10:39:33;97594.13;;;23.10;51.67
51123;BME280;37162;41.724;13.346;2022-10-29T10:42:05;97588.88;;;23.04;51.42
51123;BME280;37162;41.724;13.346;2022-10-29T10:44:31;97585.03;;;23.00;52.05
51123;BME280;37162;41.724;13.346;2022-10-29T10:47:03;97587.19;;;22.98;52.18
51123;BME280;37162;41.724;13.346;2022-10-29T10:49:35;97584.16;;;22.94;52.19
51123;BME280;37162;41.724;13.346;2022-10-29T10:52:13;97581.13;;;22.90;52.10
51123;BME280;37162;41.724;13.346;2022-10-29T10:54:54;97572.97;;;22.90;52.01
51123;BME280;37162;41.724;13.346;2022-10-29T10:57:23;97570.28;;;22.90;52.36
51123;BME280;37162;41.724;13.346;2022-10-29T11:00:19;97569.22;;;22.91;52.52
51123;BME280;37162;41.724;13.346;2022-10-29T11:02:54;97558.63;;;22.90;52.37
51123;BME280;37162;41.724;13.346;2022-10-29T11:05:27;97562.16;;;22.90;52.59
51123;BME280;37162;41.724;13.346;2022-10-29T11:08:09;97558.63;;;22.90;52.56
51123;BME280;37162;41.724;13.346;2022-10-29T11:10:47;97559.44;;;22.90;52.40
51123;BME280;37162;41.724;13.346;2022-10-29T11:13:20;97540.38;;;22.85;52.64
51123;BME280;37162;41.724;13.346;2022-10-29T11:15:54;97543.66;;;22.87;52.33
51123;BME280;37162;41.724;13.346;2022-10-29T11:23:44;97540.53;;;22.95;52.38
51123;BME280;37162;41.724;13.346;2022-10-29T11:26:36;97547.03;;;22.94;52.57
51123;BME280;37162;41.724;13.346;2022-10-29T11:29:13;97544.91;;;22.97;52.51
51123;BME280;37162;41.724;13.346;2022-10-29T11:37:02;97527.28;;;22.99;52.48
51123;BME280;37162;41.724;13.346;2022-10-29T11:39:45;97519.38;;;22.92;52.06
51123;BME280;37162;41.724;13.346;2022-10-29T11:42:13;97522.41;;;22.96;52.46
51123;BME280;37162;41.724;13.346;2022-10-29T11:44:39;97527.28;;;22.99;52.17
51123;BME280;37162;41.724;13.346;2022-10-29T11:52:11;97519.91;;;22.94;52.11
51123;BME280;37162;41.724;13.346;2022-10-29T11:54:47;97518.28;;;22.93;52.22
51123;BME280;37162;41.724;13.346;2022-10-29T12:00:24;97501.06;;;22.83;52.51
51123;BME280;37162;41.724;13.346;2022-10-29T12:05:55;97503.25;;;22.86;52.19
51123;BME280;37162;41.724;13.346;2022-10-29T12:08:37;97501.88;;;22.83;52.01
51123;BME280;37162;41.724;13.346;2022-10-29T12:19:48;97484.06;;;22.65;52.63
51123;BME280;37162;41.724;13.346;2022-10-29T12:27:54;97469.69;;;22.43;52.83
51123;BME280;37162;41.724;13.346;2022-10-29T12:30:23;97479.13;;;22.40;53.37
51123;BME280;37162;41.724;13.346;2022-10-29T12:33:06;97477.66;;;22.33;53.56
51123;BME280;37162;41.724;13.346;2022-10-29T12:40:37;97463.84;;;22.12;53.51
51123;BME280;37162;41.724;13.346;2022-10-29T12:43:21;97468.09;;;22.08;53.92
51123;BME280;37162;41.724;13.346;2022-10-29T12:48:55;97454.66;;;21.97;54.51
51123;BME280;37162;41.724;13.346;2022-10-29T12:51:52;97451.88;;;21.91;54.41
51123;BME280;37162;41.724;13.346;2022-10-29T12:54:30;97449.91;;;21.87;54.78
51123;BME280;37162;41.724;13.346;2022-10-29T12:59:40;97451.16;;;21.79;54.85
51123;BME280;37162;41.724;13.346;2022-10-29T13:07:31;97440.19;;;21.69;55.24
51123;BME280;37162;41.724;13.346;2022-10-29T13:13:02;97446.34;;;21.64;55.65
51123;BME280;37162;41.724;13.346;2022-10-29T13:15:35;97440.25;;;21.57;55.19
51123;BME280;37162;41.724;13.346;2022-10-29T13:18:17;97439.69;;;21.55;55.63
51123;BME280;37162;41.724;13.346;2022-10-29T13:20:48;97438.63;;;21.56;55.91
51123;BME280;37162;41.724;13.346;2022-10-29T13:25:57;97437.22;;;21.54;55.73
51123;BME280;37162;41.724;13.346;2022-10-29T13:31:42;97423.78;;;21.42;55.70
51123;BME280;37162;41.724;13.346;2022-10-29T13:36:02;97427.66;;;21.46;56.32
51123;BME280;37162;41.724;13.346;2022-10-29T13:41:23;97425.44;;;21.43;56.35
51123;BME280;37162;41.724;13.346;2022-10-29T13:46:38;97420.75;;;21.38;56.41
51123;BME280;37162;41.724;13.346;2022-10-29T13:49:11;97415.84;;;21.35;56.20
51123;BME280;37162;41.724;13.346;2022-10-29T13:51:50;97404.91;;;21.30;56.24
51123;BME280;37162;41.724;13.346;2022-10-29T13:54:39;97414.19;;;21.34;56.30
51123;BME280;37162;41.724;13.346;2022-10-29T13:57:28;97414.47;;;21.33;56.63
51123;BME280;37162;41.724;13.346;2022-10-29T14:00:04;97417.16;;;21.33;56.51
51123;BME280;37162;41.724;13.346;2022-10-29T14:02:36;97419.03;;;21.32;56.57
51123;BME280;37162;41.724;13.346;2022-10-29T14:07:57;97416.56;;;21.31;56.70
51123;BME280;37162;41.724;13.346;2022-10-29T14:12:55;97402.63;;;21.22;56.82
51123;BME280;37162;41.724;13.346;2022-10-29T14:15:22;97399.34;;;21.20;56.64
51123;BME280;37162;41.724;13.346;2022-10-29T14:17:48;97413.53;;;21.27;56.54
51123;BME280;37162;41.724;13.346;2022-10-29T14:22:45;97411.31;;;21.24;57.04
51123;BME280;37162;41.724;13.346;2022-10-29T14:25:35;97410.47;;;21.24;56.99
51123;BME280;37162;41.724;13.346;2022-10-29T14:28:23;97406.38;;;21.21;56.82
51123;BME280;37162;41.724;13.346;2022-10-29T14:31:09;97402.84;;;21.21;56.76
51123;BME280;37162;41.724;13.346;2022-10-29T14:33:37;97397.63;;;21.14;56.97
51123;BME280;37162;41.724;13.346;2022-10-29T14:38:58;97406.63;;;21.19;57.04
51123;BME280;37162;41.724;13.346;2022-10-29T14:41:23;97400.06;;;21.15;57.03
51123;BME280;37162;41.724;13.346;2022-10-29T14:44:13;97392.56;;;21.17;57.05
51123;BME280;37162;41.724;13.346;2022-10-29T14:46:39;97396.31;;;21.16;57.00
51123;BME280;37162;41.724;13.346;2022-10-29T14:49:19;97399.00;;;21.16;56.93
51123;BME280;37162;41.724;13.346;2022-10-29T14:51:55;97395.47;;;21.16;57.25
51123;BME280;37162;41.724;13.346;2022-10-29T14:54:38;97403.59;;;21.16;57.18
51123;BME280;37162;41.724;13.346;2022-10-29T14:57:09;97402.22;;;21.13;57.12
51123;BME280;37162;41.724;13.346;2022-10-29T14:59:35;97403.03;;;21.14;57.36
51123;BME280;37162;41.724;13.346;2022-10-29T15:02:06;97392.13;;;21.09;57.29